Time;durP1;ratioP1;P1;durP2;ratioP2;P2;SDS_P1;SDS_P2;PMS_P1;PMS_P2;Temp;Humidity;BMP_temperature;BMP_pressure;BME280_temperature;BME280_humidity;BME280_pressure;Samples;Min_cycle;Max_cycle;Signal;HPM_P1;HPM_P2
2023/02/08 00:00:03;;;;;;;9.67;5.27;;;;;;;-2.81;91.68;102346.81;5033002;28;20399;-65
2023/02/08 00:02:29;;;;;;;10.00;5.27;;;;;;;-2.73;91.47;102346.06;5025230;28;20029;-65
2023/02/08 00:04:54;;;;;;;8.63;4.97;;;;;;;-2.73;90.93;102338.50;5014033;28;20026;-64
2023/02/08 00:07:20;;;;;;;9.90;5.40;;;;;;;-2.73;90.61;102343.56;5024740;28;20029;-67
2023/02/08 00:09:45;;;;;;;10.00;5.53;;;;;;;-2.73;90.35;102342.66;5016385;28;20478;-64
2023/02/08 00:12:11;;;;;;;8.20;5.80;;;;;;;-2.67;89.27;102350.97;5032155;28;20029;-67
2023/02/08 00:14:36;;;;;;;9.10;5.33;;;;;;;-2.66;89.32;102352.81;5032218;28;20211;-67
2023/02/08 00:17:02;;;;;;;10.60;5.07;;;;;;;-2.69;89.68;102354.94;5029648;28;20029;-66
2023/02/08 00:19:27;;;;;;;8.40;4.73;;;;;;;-2.78;89.07;102355.66;5003586;28;20030;-66
2023/02/08 00:21:53;;;;;;;7.93;4.60;;;;;;;-2.73;89.05;102353.66;5002599;28;20033;-69
2023/02/08 00:24:21;;;;;;;8.37;4.83;;;;;;;-2.86;88.42;102342.81;5011345;28;20025;-63
2023/02/08 00:26:46;;;;;;;7.93;4.50;;;;;;;-3.09;88.73;102303.94;5012631;28;20037;-64
2023/02/08 00:29:12;;;;;;;9.07;5.47;;;;;;;-2.98;87.37;102327.06;5012101;28;20092;-66
2023/02/08 00:31:37;;;;;;;11.30;4.73;;;;;;;-2.72;87.12;102368.13;5012089;28;20026;-67
2023/02/08 00:34:02;;;;;;;8.23;4.50;;;;;;;-2.66;86.98;102362.91;5017871;28;20037;-65
2023/02/08 00:36:28;;;;;;;7.97;4.13;;;;;;;-2.57;85.55;102366.53;5032167;28;20124;-67
2023/02/08 00:38:53;;;;;;;7.43;3.77;;;;;;;-2.58;85.05;102364.72;5026533;28;20056;-64
2023/02/08 00:41:19;;;;;;;8.73;4.00;;;;;;;-2.52;85.65;102372.16;5012368;28;20468;-69
2023/02/08 00:43:44;;;;;;;7.63;4.07;;;;;;;-2.48;85.09;102375.25;5017795;28;20170;-66
2023/02/08 00:46:10;;;;;;;9.90;5.20;;;;;;;-2.41;84.57;102386.09;5019992;28;20080;-65
2023/02/08 00:48:35;;;;;;;7.13;4.13;;;;;;;-2.49;84.79;102370.91;5024869;28;20029;-64
2023/02/08 00:51:08;;;;;;;5.90;3.70;;;;;;;-2.39;85.05;102380.50;5012044;28;20083;-65
2023/02/08 00:53:36;;;;;;;6.00;3.40;;;;;;;-2.38;84.70;102376.31;5011356;28;20038;-65
2023/02/08 00:56:02;;;;;;;8.17;4.00;;;;;;;-2.36;84.58;102370.72;5011375;28;20033;-66
2023/02/08 00:58:28;;;;;;;6.97;3.27;;;;;;;-2.36;83.97;102367.31;4998973;28;20025;-68
2023/02/08 01:00:54;;;;;;;6.27;3.53;;;;;;;-2.42;84.29;102370.00;5028317;28;20033;-67
2023/02/08 01:03:23;;;;;;;7.23;3.90;;;;;;;-2.43;84.00;102365.66;5031231;28;20031;-65
2023/02/08 01:05:48;;;;;;;5.32;3.28;;;;;;;-2.37;83.67;102376.50;5031189;28;20040;-67
2023/02/08 01:08:14;;;;;;;6.80;3.47;;;;;;;-2.33;84.46;102371.09;5031099;28;20029;-68
2023/02/08 01:10:40;;;;;;;6.73;3.80;;;;;;;-2.37;85.39;102375.59;5013686;28;20030;-68
2023/02/08 01:13:05;;;;;;;7.23;3.90;;;;;;;-2.34;85.26;102379.41;5011384;28;20399;-70
2023/02/08 01:15:31;;;;;;;6.73;3.53;;;;;;;-2.36;85.73;102375.78;5011693;28;20107;-61
2023/02/08 01:17:57;;;;;;;9.50;3.77;;;;;;;-2.55;85.98;102337.28;5011084;28;20026;-66
2023/02/08 01:20:23;;;;;;;6.70;3.77;;;;;;;-2.65;86.12;102330.22;5011490;28;20030;-61
2023/02/08 01:22:49;;;;;;;6.97;3.70;;;;;;;-2.42;86.19;102366.56;5011603;28;20040;-65
2023/02/08 01:25:14;;;;;;;6.10;3.87;;;;;;;-2.35;86.17;102376.72;5011780;28;20463;-65
2023/02/08 01:27:40;;;;;;;7.23;4.10;;;;;;;-2.33;86.33;102375.25;5011745;28;20539;-65
2023/02/08 01:30:06;;;;;;;7.50;3.67;;;;;;;-2.34;85.44;102376.00;5011669;28;20033;-66
2023/02/08 01:32:32;;;;;;;6.47;3.80;;;;;;;-2.27;85.27;102370.91;5010333;28;20044;-62
2023/02/08 01:34:57;;;;;;;7.00;4.10;;;;;;;-2.23;85.58;102378.19;5011056;28;20415;-65
2023/02/08 01:37:23;;;;;;;7.90;4.17;;;;;;;-2.60;85.56;102313.97;5011754;28;20034;-65
2023/02/08 01:39:48;;;;;;;10.53;4.50;;;;;;;-2.21;85.00;102374.19;5029702;28;20041;-66
2023/02/08 01:42:15;;;;;;;6.40;3.57;;;;;;;-2.16;84.71;102379.78;5030664;28;20399;-68
2023/02/08 01:45:14;;;;;;;8.90;4.47;;;;;;;-2.15;85.61;102386.66;5030795;28;20029;-64
2023/02/08 01:47:42;;;;;;;7.05;4.10;;;;;;;-2.22;86.51;102377.44;5031024;28;20040;-67
2023/02/08 01:50:09;;;;;;;9.90;4.60;;;;;;;-2.33;87.11;102367.66;5030420;28;20183;-66
2023/02/08 01:52:34;;;;;;;10.70;4.43;;;;;;;-2.17;87.58;102391.56;5031050;28;20040;-65
2023/02/08 01:55:16;;;;;;;9.97;4.70;;;;;;;-2.15;87.67;102386.66;5030748;28;20514;-64
2023/02/08 01:57:43;;;;;;;8.37;4.30;;;;;;;-2.13;86.94;102381.06;5012520;28;20031;-66
2023/02/08 02:00:20;;;;;;;10.83;4.50;;;;;;;-2.20;86.42;102368.41;4979211;28;20060;-67
2023/02/08 02:02:47;;;;;;;9.47;4.90;;;;;;;-2.16;87.12;102379.78;5030604;28;20061;-66
2023/02/08 02:05:14;;;;;;;8.10;4.80;;;;;;;-2.14;87.33;102391.00;5030226;28;20386;-64
2023/02/08 02:07:40;;;;;;;9.73;4.77;;;;;;;-2.28;86.64;102369.09;5030759;28;20061;-63
2023/02/08 02:10:26;;;;;;;9.27;5.23;;;;;;;-2.19;87.14;102392.97;5029762;28;20048;-62
2023/02/08 02:12:53;;;;;;;9.20;4.70;;;;;;;-2.20;87.62;102388.66;5030047;28;20025;-64
2023/02/08 02:15:19;;;;;;;8.73;4.70;;;;;;;-2.47;87.45;102351.75;5030372;28;20032;-66
2023/02/08 02:17:45;;;;;;;8.90;5.20;;;;;;;-2.34;87.73;102373.47;5029739;28;20025;-66
2023/02/08 02:20:16;;;;;;;9.97;4.90;;;;;;;-2.19;88.02;102405.63;5011712;28;20041;-69
2023/02/08 02:23:07;;;;;;;9.53;5.73;;;;;;;-2.16;88.60;102410.16;5012275;28;20108;-68
2023/02/08 02:25:41;;;;;;;10.13;5.60;;;;;;;-2.20;88.29;102413.06;5030188;28;20569;-65
2023/02/08 02:28:06;;;;;;;10.13;5.10;;;;;;;-2.17;88.68;102406.75;5029888;28;20026;-63
2023/02/08 02:31:00;;;;;;;13.17;5.83;;;;;;;-2.25;89.35;102415.03;5029985;28;20022;-63
2023/02/08 02:33:40;;;;;;;13.67;5.53;;;;;;;-2.44;89.35;102381.56;5020378;28;20112;-63
2023/02/08 02:36:15;;;;;;;12.57;5.67;;;;;;;-2.33;89.81;102404.00;5029760;28;20049;-66
2023/02/08 02:39:04;;;;;;;14.77;6.37;;;;;;;-2.56;90.33;102375.94;5029899;28;20046;-67
2023/02/08 02:44:47;;;;;;;12.70;6.43;;;;;;;-2.42;91.22;102429.81;5006053;28;20032;-64
2023/02/08 02:47:31;;;;;;;9.40;5.60;;;;;;;-2.42;91.16;102429.81;5013549;28;20021;-67
2023/02/08 02:50:26;;;;;;;12.37;6.00;;;;;;;-2.49;91.22;102435.75;5021385;28;20654;-62
2023/02/08 02:52:55;;;;;;;11.07;6.10;;;;;;;-2.48;91.62;102435.94;5030110;28;20029;-65
2023/02/08 02:55:24;;;;;;;12.53;6.93;;;;;;;-2.50;91.66;102422.19;5030574;28;20030;-66
2023/02/08 02:57:52;;;;;;;10.82;6.10;;;;;;;-2.55;91.55;102417.31;5019680;28;20108;-66
2023/02/08 03:00:22;;;;;;;10.07;6.00;;;;;;;-2.53;91.89;102428.50;5013920;28;20030;-63
2023/02/08 03:02:48;;;;;;;11.33;6.10;;;;;;;-2.64;92.19;102432.28;5029866;28;20026;-63
2023/02/08 03:05:14;;;;;;;10.80;5.87;;;;;;;-2.60;91.83;102452.16;5011514;28;20036;-66
2023/02/08 03:08:02;;;;;;;12.20;6.57;;;;;;;-2.64;92.54;102438.22;5010060;28;20025;-62
2023/02/08 03:10:52;;;;;;;12.55;7.38;;;;;;;-2.72;93.13;102449.03;4956405;28;20043;-65
2023/02/08 03:13:54;;;;;;;13.97;7.67;;;;;;;-2.77;93.60;102453.53;4968090;28;20187;-66
2023/02/08 03:16:27;;;;;;;12.77;7.20;;;;;;;-3.15;93.59;102404.25;4892295;29;20084;-65
2023/02/08 03:19:17;;;;;;;12.70;7.03;;;;;;;-2.87;93.87;102452.22;4896149;29;20087;-66
2023/02/08 03:21:53;;;;;;;13.67;7.50;;;;;;;-2.74;94.64;102464.72;4895953;29;20084;-65
2023/02/08 03:24:24;;;;;;;12.67;7.63;;;;;;;-2.78;94.29;102469.41;4895555;29;20108;-65
2023/02/08 03:27:21;;;;;;;16.37;8.33;;;;;;;-2.70;94.51;102477.94;4895998;29;20116;-67
2023/02/08 03:29:52;;;;;;;12.03;7.13;;;;;;;-2.72;94.37;102475.94;4871367;29;20028;-65
2023/02/08 03:32:23;;;;;;;16.90;8.90;;;;;;;-2.72;94.56;102479.34;4895662;29;20173;-70
2023/02/08 03:35:00;;;;;;;13.03;7.30;;;;;;;-2.70;94.90;102489.69;4895604;29;20036;-64
2023/02/08 03:37:31;;;;;;;14.40;8.63;;;;;;;-2.67;94.69;102485.00;4895586;29;20068;-67
2023/02/08 03:40:10;;;;;;;13.30;7.77;;;;;;;-2.71;95.16;102476.13;4895502;29;20056;-68
2023/02/08 03:42:37;;;;;;;14.30;7.63;;;;;;;-2.70;95.45;102488.03;4895585;29;20032;-68
2023/02/08 03:45:27;;;;;;;14.97;8.43;;;;;;;-2.70;95.51;102479.56;4895858;29;20127;-63
2023/02/08 03:47:54;;;;;;;;;;;;;;;-2.71;95.71;102482.81;4931328;29;20110;-63
2023/02/08 03:50:21;;;;;;;16.03;7.07;;;;;;;-3.04;95.73;102432.44;4952329;29;20016;-64
2023/02/08 03:52:49;;;;;;;16.17;7.60;;;;;;;-2.79;96.21;102484.38;4978414;28;20099;-64
2023/02/08 03:55:23;;;;;;;18.43;9.23;;;;;;;-2.96;96.36;102457.94;5013743;28;20037;-65
2023/02/08 03:57:56;;;;;;;15.30;8.00;;;;;;;-2.85;96.38;102479.50;5013660;28;20108;-64
2023/02/08 04:00:22;;;;;;;15.97;8.87;;;;;;;-2.87;96.88;102480.91;5013556;28;20018;-64
2023/02/08 04:02:56;;;;;;;15.93;8.47;;;;;;;-2.90;96.88;102490.66;5013979;28;20511;-66
2023/02/08 04:05:23;;;;;;;14.07;8.97;;;;;;;-2.93;97.34;102478.56;5014146;28;20484;-65
2023/02/08 04:07:49;;;;;;;17.20;9.37;;;;;;;-2.95;97.67;102474.03;5013522;28;20492;-64
2023/02/08 04:10:15;;;;;;;20.13;7.90;;;;;;;-2.94;98.01;102475.81;5013250;28;20106;-65
2023/02/08 04:12:41;;;;;;;14.63;7.53;;;;;;;-2.97;98.18;102483.03;4995540;28;20129;-64
2023/02/08 04:15:07;;;;;;;15.07;9.03;;;;;;;-3.07;98.18;102453.19;5013368;28;20030;-63
2023/02/08 04:17:33;;;;;;;15.20;9.17;;;;;;;-2.96;98.44;102475.63;5013336;28;20078;-63
2023/02/08 04:19:59;;;;;;;14.80;8.87;;;;;;;-3.01;98.70;102469.09;5013418;28;20512;-63
2023/02/08 04:22:24;;;;;;;16.70;9.60;;;;;;;-2.98;98.73;102473.63;5013346;28;20029;-63
2023/02/08 04:24:50;;;;;;;17.50;9.67;;;;;;;-2.97;98.64;102483.91;5013176;28;20022;-64
2023/02/08 04:27:15;;;;;;;18.77;9.63;;;;;;;-2.98;98.67;102483.75;4995384;28;20061;-67
2023/02/08 04:29:41;;;;;;;16.63;9.10;;;;;;;-3.27;98.66;102433.94;5012436;28;20030;-63
2023/02/08 04:32:10;;;;;;;14.93;8.13;;;;;;;-2.96;98.75;102489.91;5012758;28;20030;-63
2023/02/08 04:34:37;;;;;;;16.80;9.40;;;;;;;-2.97;98.73;102500.72;5013052;28;20026;-64
2023/02/08 04:37:03;;;;;;;18.60;10.53;;;;;;;-3.10;98.84;102478.97;5012825;28;20042;-66
2023/02/08 04:39:28;;;;;;;14.37;8.40;;;;;;;-3.25;98.75;102461.94;5022485;28;20068;-63
2023/02/08 04:41:55;;;;;;;17.10;9.83;;;;;;;-2.97;98.83;102514.25;5032536;28;20049;-64
2023/02/08 04:44:20;;;;;;;18.03;10.30;;;;;;;-2.96;99.39;102530.34;5032301;28;20039;-65
2023/02/08 04:46:46;;;;;;;17.10;9.30;;;;;;;-3.21;99.20;102481.81;5032817;28;20043;-63
2023/02/08 04:49:11;;;;;;;16.93;9.37;;;;;;;-2.96;99.31;102530.34;5032578;28;20083;-63
2023/02/08 04:51:37;;;;;;;16.47;9.90;;;;;;;-2.90;99.12;102543.72;5032971;28;20087;-66
2023/02/08 04:54:02;;;;;;;14.17;8.67;;;;;;;-2.85;99.47;102546.84;5032567;28;20029;-64
2023/02/08 04:56:28;;;;;;;19.10;9.83;;;;;;;-2.79;98.97;102548.50;5032276;28;20026;-66
2023/02/08 04:58:53;;;;;;;16.30;10.10;;;;;;;-2.75;98.93;102549.78;5032422;28;20454;-64
2023/02/08 05:01:19;;;;;;;17.53;9.47;;;;;;;-2.77;99.19;102548.69;5032189;28;20384;-63
2023/02/08 05:03:44;;;;;;;17.00;9.90;;;;;;;-3.12;98.96;102499.72;5013348;28;20116;-64
2023/02/08 05:06:10;;;;;;;18.40;9.53;;;;;;;-2.76;99.27;102564.03;5026382;28;20506;-66
2023/02/08 05:08:35;;;;;;;17.03;9.10;;;;;;;-2.85;99.30;102562.00;5012619;28;20029;-62
2023/02/08 05:11:01;;;;;;;17.73;9.70;;;;;;;-2.81;99.65;102569.25;5016457;28;20061;-63
2023/02/08 05:13:26;;;;;;;19.03;9.87;;;;;;;-3.09;99.25;102521.22;5031942;28;20403;-64
2023/02/08 05:15:52;;;;;;;18.23;10.17;;;;;;;-2.87;99.46;102571.91;5032321;28;20109;-63
2023/02/08 05:18:17;;;;;;;21.50;11.63;;;;;;;-2.85;99.61;102580.59;5031829;28;20025;-64
2023/02/08 05:20:43;;;;;;;17.13;8.63;;;;;;;-2.85;99.43;102573.00;5031884;28;20029;-66
2023/02/08 05:23:09;;;;;;;19.83;10.27;;;;;;;-2.83;99.56;102581.69;5031482;28;20108;-64
2023/02/08 05:25:36;;;;;;;19.07;11.07;;;;;;;-2.78;99.09;102588.22;5031921;28;20132;-64
2023/02/08 05:28:02;;;;;;;19.83;11.93;;;;;;;-3.03;99.08;102545.44;5031489;28;20112;-63
2023/02/08 05:30:27;;;;;;;16.97;9.77;;;;;;;-2.74;98.87;102589.53;5031983;28;20108;-66
2023/02/08 05:32:53;;;;;;;18.47;10.53;;;;;;;-2.76;98.92;102599.41;5039283;28;20046;-69
2023/02/08 05:35:18;;;;;;;19.87;10.83;;;;;;;-2.71;99.15;102604.16;5040583;28;20065;-68
2023/02/08 05:37:44;;;;;;;20.60;11.37;;;;;;;-2.73;99.07;102608.13;5031218;28;20083;-64
2023/02/08 05:40:12;;;;;;;21.80;11.30;;;;;;;-2.71;99.47;102616.81;5031791;28;20384;-64
2023/02/08 05:42:37;;;;;;;18.63;10.83;;;;;;;-2.68;99.09;102624.75;5031488;28;20657;-63
2023/02/08 05:45:03;;;;;;;18.10;10.50;;;;;;;-2.96;99.11;102573.28;5031653;28;20026;-62
2023/02/08 05:47:29;;;;;;;20.43;10.07;;;;;;;-2.71;99.22;102629.44;5031642;28;20036;-64
2023/02/08 05:49:54;;;;;;;21.43;10.60;;;;;;;-3.02;99.59;102564.94;5031529;28;20468;-63
2023/02/08 05:52:20;;;;;;;18.03;10.47;;;;;;;-2.79;99.79;102604.09;5029757;28;20415;-65
2023/02/08 05:54:45;;;;;;;18.17;9.90;;;;;;;-2.69;100.00;102620.41;5023588;28;20423;-64
2023/02/08 05:57:10;;;;;;;19.37;9.70;;;;;;;-2.72;100.00;102613.34;5030831;28;20515;-63
2023/02/08 05:59:36;;;;;;;20.53;10.93;;;;;;;-2.70;100.00;102613.56;5031422;28;20446;-65
2023/02/08 06:02:01;;;;;;;20.80;10.93;;;;;;;-2.72;100.00;102609.94;5023712;28;20018;-64
2023/02/08 06:04:27;;;;;;;18.77;11.17;;;;;;;-2.67;100.00;102619.00;5011543;28;20041;-64
2023/02/08 06:06:52;;;;;;;18.90;10.50;;;;;;;-2.69;100.00;102625.47;5011091;28;20022;-64
2023/02/08 06:09:18;;;;;;;18.73;10.10;;;;;;;-2.65;100.00;102630.22;5006481;28;20030;-64
2023/02/08 06:11:43;;;;;;;17.50;9.70;;;;;;;-2.98;100.00;102568.06;5013735;28;20032;-67
2023/02/08 06:14:09;;;;;;;22.03;10.17;;;;;;;-2.63;100.00;102617.03;5029980;28;20415;-64
2023/02/08 06:16:34;;;;;;;17.50;10.10;;;;;;;-2.59;100.00;102623.41;5033164;28;20402;-68
2023/02/08 06:19:20;;;;;;;18.40;10.13;;;;;;;-2.68;100.00;102617.19;5007740;28;20050;-64
2023/02/08 06:21:45;;;;;;;16.23;9.43;;;;;;;-2.61;100.00;102627.34;5008044;28;20060;-65
2023/02/08 06:24:12;;;;;;;18.60;10.10;;;;;;;-2.65;100.00;102627.69;5000246;28;20507;-64
2023/02/08 06:26:38;;;;;;;18.23;9.93;;;;;;;-2.59;100.00;102630.97;4988383;28;20026;-64
2023/02/08 06:29:03;;;;;;;18.70;10.73;;;;;;;-2.66;100.00;102616.66;4988220;28;20042;-65
2023/02/08 06:31:29;;;;;;;19.13;9.70;;;;;;;-2.70;100.00;102603.47;4988328;28;20092;-63
2023/02/08 06:33:54;;;;;;;16.37;9.20;;;;;;;-2.53;100.00;102631.75;4987493;28;20093;-67
2023/02/08 06:36:20;;;;;;;18.50;9.40;;;;;;;-2.50;100.00;102637.16;4988090;28;20133;-66
2023/02/08 06:38:45;;;;;;;16.70;9.03;;;;;;;-2.56;100.00;102623.75;4987443;28;20579;-69
2023/02/08 06:41:12;;;;;;;18.83;8.93;;;;;;;-2.47;100.00;102635.03;5001178;28;20484;-64
2023/02/08 06:43:39;;;;;;;15.50;8.83;;;;;;;-2.42;100.00;102644.81;4987462;28;20034;-63
2023/02/08 06:46:07;;;;;;;16.47;9.50;;;;;;;-2.40;100.00;102635.78;4990846;28;20041;-64
2023/02/08 06:48:35;;;;;;;18.07;10.30;;;;;;;-2.49;100.00;102622.91;5007856;28;20381;-64
2023/02/08 06:51:01;;;;;;;17.00;10.20;;;;;;;-2.35;100.00;102639.81;5023873;28;20045;-64
2023/02/08 06:53:27;;;;;;;17.13;9.70;;;;;;;-2.52;100.00;102603.19;5046997;28;20055;-65
2023/02/08 06:55:52;;;;;;;17.47;9.93;;;;;;;-2.32;99.91;102643.63;5033308;28;20514;-62
2023/02/08 06:58:18;;;;;;;22.07;11.23;;;;;;;-2.17;100.00;102652.19;5046544;28;20060;-64
2023/02/08 07:00:44;;;;;;;18.00;10.17;;;;;;;-2.20;100.00;102653.44;5033279;28;20035;-64
2023/02/08 07:03:10;;;;;;;18.13;10.23;;;;;;;-2.19;100.00;102651.09;5045425;28;20063;-64
2023/02/08 07:05:37;;;;;;;18.90;9.60;;;;;;;-2.08;99.85;102651.50;5046091;28;20113;-64
2023/02/08 07:08:03;;;;;;;18.67;9.30;;;;;;;-2.03;99.98;102655.50;5029675;28;20083;-64
2023/02/08 07:10:28;;;;;;;19.43;10.43;;;;;;;-1.90;100.00;102658.81;5029545;28;20474;-63
2023/02/08 07:12:54;;;;;;;17.13;9.90;;;;;;;-1.94;99.20;102661.69;5034961;28;20462;-63
2023/02/08 07:15:19;;;;;;;15.37;9.00;;;;;;;-1.98;98.38;102647.75;5049055;28;20025;-64
2023/02/08 07:17:44;;;;;;;16.97;9.47;;;;;;;-1.85;99.12;102666.97;5039918;28;20475;-64
2023/02/08 07:20:10;;;;;;;17.97;9.67;;;;;;;-1.90;98.39;102646.16;5029784;28;20083;-64
2023/02/08 07:22:37;;;;;;;15.43;8.67;;;;;;;-1.62;97.94;102672.28;5030456;28;20048;-65
2023/02/08 07:25:04;;;;;;;15.07;8.50;;;;;;;-1.63;96.55;102661.25;5044036;28;20021;-67
2023/02/08 07:27:29;;;;;;;14.40;8.67;;;;;;;-1.79;95.73;102628.09;5039825;28;20025;-64
2023/02/08 07:29:54;;;;;;;15.90;8.63;;;;;;;-1.72;94.48;102626.31;5043128;28;20048;-64
2023/02/08 07:32:20;;;;;;;14.17;8.77;;;;;;;-1.40;94.02;102668.19;5049543;28;20021;-64
2023/02/08 07:34:45;;;;;;;14.80;7.73;;;;;;;-1.37;93.37;102667.66;5046020;28;20026;-64
2023/02/08 07:37:11;;;;;;;15.93;8.60;;;;;;;-1.20;93.82;102664.63;5036921;28;20032;-64
2023/02/08 07:39:37;;;;;;;15.37;8.23;;;;;;;-1.05;92.00;102668.06;5030200;28;20476;-67
2023/02/08 07:42:05;;;;;;;13.37;8.03;;;;;;;-0.95;91.22;102680.22;5010043;28;20030;-64
2023/02/08 07:44:31;;;;;;;12.73;7.83;;;;;;;-1.13;88.89;102651.97;5009582;28;20033;-65
2023/02/08 07:46:56;;;;;;;12.23;7.30;;;;;;;-0.99;89.01;102677.31;5009942;28;20037;-64
2023/02/08 07:49:22;;;;;;;13.93;7.60;;;;;;;-1.10;88.76;102646.34;5009202;28;20447;-64
2023/02/08 07:51:47;;;;;;;12.93;7.23;;;;;;;-0.92;88.52;102685.63;5009566;28;20117;-63
2023/02/08 07:54:13;;;;;;;11.63;7.50;;;;;;;-0.83;88.32;102684.22;5009601;28;20080;-63
2023/02/08 07:56:38;;;;;;;15.60;7.67;;;;;;;-0.96;88.29;102670.78;5009413;28;20551;-64
2023/02/08 07:59:04;;;;;;;14.10;8.03;;;;;;;-0.83;87.87;102695.25;5009339;28;20042;-65
2023/02/08 08:01:29;;;;;;;13.97;7.07;;;;;;;-0.87;88.43;102687.13;5009765;28;20519;-64
2023/02/08 08:03:55;;;;;;;13.87;7.40;;;;;;;-0.99;88.35;102691.63;5010316;28;20411;-62
2023/02/08 08:06:22;;;;;;;12.07;7.20;;;;;;;-1.05;88.14;102690.91;5012611;28;20030;-63
2023/02/08 08:08:48;;;;;;;14.30;6.90;;;;;;;-1.12;88.19;102690.88;5013153;28;20083;-65
2023/02/08 08:11:15;;;;;;;13.50;7.97;;;;;;;-1.67;87.88;102597.38;5013076;28;20030;-64
2023/02/08 08:13:41;;;;;;;14.37;8.00;;;;;;;-1.12;87.32;102704.47;5012739;28;20443;-67
2023/02/08 08:16:06;;;;;;;10.60;6.83;;;;;;;-1.08;86.48;102698.16;5012858;28;20030;-68
2023/02/08 08:18:32;;;;;;;10.47;6.03;;;;;;;-1.11;86.00;102705.38;5012425;28;20033;-63
2023/02/08 08:20:57;;;;;;;11.97;6.77;;;;;;;-1.28;85.79;102691.59;5012658;28;20103;-64
2023/02/08 08:23:23;;;;;;;9.87;6.07;;;;;;;-1.17;86.17;102708.97;5012654;28;20065;-66
2023/02/08 08:25:49;;;;;;;10.27;7.07;;;;;;;-1.12;86.56;102706.09;5012695;28;20030;-64
2023/02/08 08:28:15;;;;;;;10.93;6.40;;;;;;;-1.19;85.43;102710.41;5012850;28;20467;-64
2023/02/08 08:30:44;;;;;;;19.10;7.50;;;;;;;-1.31;85.80;102692.13;5012427;28;20095;-66
2023/02/08 08:33:10;;;;;;;13.63;6.43;;;;;;;-1.18;85.59;102709.69;5012376;28;20061;-68
2023/02/08 08:35:36;;;;;;;12.03;6.63;;;;;;;-1.16;86.08;102726.00;5013001;28;20053;-64
2023/02/08 08:38:02;;;;;;;11.07;6.63;;;;;;;-1.36;85.51;102662.78;5015129;28;20061;-65
2023/02/08 08:40:27;;;;;;;14.30;7.73;;;;;;;-1.04;84.81;102725.66;5032872;28;20034;-65
2023/02/08 08:42:53;;;;;;;13.57;7.87;;;;;;;-1.05;84.36;102723.84;5032613;28;20040;-63
2023/02/08 08:45:18;;;;;;;10.90;6.47;;;;;;;-1.06;84.32;102724.56;5032436;28;20083;-63
2023/02/08 08:47:44;;;;;;;8.93;5.17;;;;;;;-1.06;83.23;102714.44;5032556;28;20025;-67
2023/02/08 08:50:09;;;;;;;10.37;5.33;;;;;;;-1.08;81.52;102732.00;5032288;28;20025;-65
2023/02/08 08:52:35;;;;;;;13.20;5.93;;;;;;;-1.20;82.01;102707.72;5032850;28;20479;-65
2023/02/08 08:55:00;;;;;;;8.73;5.40;;;;;;;-1.04;82.17;102725.66;5032554;28;20032;-65
2023/02/08 08:57:26;;;;;;;10.50;5.93;;;;;;;-0.98;83.16;102728.94;5014576;28;20406;-63
2023/02/08 08:59:51;;;;;;;9.60;5.63;;;;;;;-0.91;82.95;102726.41;5032259;28;20478;-65
2023/02/08 09:02:17;;;;;;;9.63;5.27;;;;;;;-0.88;82.79;102721.69;5032296;28;20036;-66
2023/02/08 09:04:42;;;;;;;7.83;5.00;;;;;;;-0.87;82.26;102736.19;5032481;28;20036;-62
2023/02/08 09:07:09;;;;;;;9.70;5.20;;;;;;;-0.82;79.56;102730.03;5032161;28;20029;-63
2023/02/08 09:09:35;;;;;;;9.87;5.70;;;;;;;-0.99;79.87;102667.16;5032132;28;20030;-67
2023/02/08 09:12:02;;;;;;;9.03;6.13;;;;;;;-0.55;81.08;102733.13;5032087;28;20463;-66
2023/02/08 09:14:27;;;;;;;12.13;8.30;;;;;;;-0.63;80.56;102683.13;5031891;28;20043;-70
2023/02/08 09:16:53;;;;;;;7.70;4.73;;;;;;;-0.21;81.22;102727.84;5032065;28;20037;-65
2023/02/08 09:19:19;;;;;;;9.27;5.43;;;;;;;-0.16;78.28;102736.00;5032032;28;20025;-65
2023/02/08 09:21:44;;;;;;;9.37;5.53;;;;;;;-0.27;78.07;102739.81;5031695;28;20041;-65
2023/02/08 09:24:10;;;;;;;9.47;5.73;;;;;;;-0.71;77.81;102677.13;5031814;28;20410;-67
2023/02/08 09:26:36;;;;;;;8.10;5.00;;;;;;;-0.21;78.07;102745.63;5031688;28;20454;-64
2023/02/08 09:29:02;;;;;;;8.53;5.03;;;;;;;-0.14;77.93;102752.31;5031852;28;20381;-65
2023/02/08 09:31:30;;;;;;;7.97;4.87;;;;;;;-0.11;76.05;102744.13;5031765;28;20036;-65
2023/02/08 09:33:59;;;;;;;9.97;5.47;;;;;;;-0.02;77.35;102742.69;5031474;28;20117;-68
2023/02/08 09:36:29;;;;;;;11.23;5.83;;;;;;;-0.07;76.94;102738.72;5031847;28;20033;-65
2023/02/08 09:38:59;;;;;;;9.20;5.60;;;;;;;0.02;77.06;102749.03;5003267;28;20065;-65
2023/02/08 09:42:01;;;;;;;8.60;4.77;;;;;;;0.35;77.14;102736.78;5011831;28;20042;-65
2023/02/08 09:44:33;;;;;;;11.37;5.63;;;;;;;0.58;76.18;102741.03;5011806;28;20037;-65
2023/02/08 09:47:16;;;;;;;11.77;6.23;;;;;;;0.61;76.55;102734.66;5005957;28;20057;-68
2023/02/08 09:50:13;;;;;;;9.00;4.97;;;;;;;0.44;76.78;102740.38;4984094;28;20038;-67
2023/02/08 09:52:43;;;;;;;9.70;5.60;;;;;;;0.33;77.08;102735.69;4991974;28;20469;-66
2023/02/08 09:55:33;;;;;;;11.07;6.93;;;;;;;0.23;78.02;102741.34;5009047;28;20048;-66
2023/02/08 09:58:06;;;;;;;10.37;6.07;;;;;;;0.57;79.11;102727.41;5011541;28;20058;-64
2023/02/08 10:00:42;;;;;;;10.80;6.20;;;;;;;0.82;78.72;102719.13;5011354;28;20049;-65
2023/02/08 10:03:27;;;;;;;11.90;5.13;;;;;;;0.72;76.21;102723.16;5011587;28;20034;-64
2023/02/08 10:05:52;;;;;;;8.63;4.80;;;;;;;0.07;74.84;102669.19;5011012;28;20033;-65
2023/02/08 10:08:19;;;;;;;9.47;5.07;;;;;;;0.03;75.72;102682.28;5011262;28;20037;-64
2023/02/08 10:11:32;;;;;;;11.80;6.20;;;;;;;0.32;75.64;102713.53;5011494;28;20039;-65
2023/02/08 10:14:01;;;;;;;9.20;4.63;;;;;;;0.57;74.52;102711.25;4930680;29;20111;-66
2023/02/08 10:17:13;;;;;;;8.55;4.90;;;;;;;1.03;75.39;102711.34;4931306;29;20841;-65
2023/02/08 10:19:47;;;;;;;9.43;5.57;;;;;;;1.25;73.29;102703.56;4931407;29;20052;-64
2023/02/08 10:22:45;;;;;;;9.67;5.73;;;;;;;1.37;73.47;102707.47;4931017;29;20035;-65
2023/02/08 10:25:23;;;;;;;10.97;6.30;;;;;;;1.60;71.45;102702.31;4931230;29;20107;-65
2023/02/08 10:27:57;;;;;;;10.80;5.47;;;;;;;1.55;71.25;102698.38;4930377;29;20035;-69
2023/02/08 10:30:38;;;;;;;8.93;5.07;;;;;;;1.49;69.80;102705.34;4931107;29;20517;-65
2023/02/08 10:33:16;;;;;;;8.63;4.93;;;;;;;1.28;70.33;102714.06;4930952;29;20038;-65
2023/02/08 10:35:46;;;;;;;8.73;4.40;;;;;;;1.49;71.14;102714.63;4931110;29;20039;-67
2023/02/08 10:38:20;;;;;;;8.73;5.03;;;;;;;1.64;70.04;102701.03;4930748;29;20051;-64
2023/02/08 10:40:51;;;;;;;7.80;4.93;;;;;;;1.72;70.84;102687.50;4950229;29;20078;-65
2023/02/08 10:43:36;;;;;;;8.17;5.60;;;;;;;1.61;68.55;102659.97;4949817;29;20047;-65
2023/02/08 10:46:29;;;;;;;9.47;5.20;;;;;;;1.81;68.15;102699.38;4950215;29;20067;-64
2023/02/08 10:49:24;;;;;;;9.03;5.47;;;;;;;1.53;66.99;102696.41;4950902;28;20084;-64
2023/02/08 10:51:49;;;;;;;8.70;4.93;;;;;;;1.41;67.75;102679.06;5010797;28;20853;-65
2023/02/08 10:54:16;;;;;;;10.80;6.03;;;;;;;1.53;70.78;102678.59;5010792;28;20121;-64
2023/02/08 10:57:03;;;;;;;9.27;5.03;;;;;;;1.57;69.64;102688.34;5010556;28;20034;-65
2023/02/08 10:59:37;;;;;;;9.67;5.50;;;;;;;1.50;67.78;102676.59;5010374;28;20104;-65
2023/02/08 11:02:25;;;;;;;9.47;5.67;;;;;;;1.57;68.65;102685.81;5010709;28;20108;-64
2023/02/08 11:05:02;;;;;;;8.47;4.80;;;;;;;1.99;68.80;102681.00;5010483;28;20030;-71
2023/02/08 11:07:29;;;;;;;13.40;6.30;;;;;;;2.04;67.93;102674.75;5010311;28;20042;-64
2023/02/08 11:10:15;;;;;;;9.97;4.30;;;;;;;1.43;68.64;102680.13;5010683;28;20036;-65
2023/02/08 11:12:42;;;;;;;10.23;4.43;;;;;;;1.42;68.66;102680.88;5010582;28;20036;-63
2023/02/08 11:15:23;;;;;;;8.63;4.87;;;;;;;1.40;68.45;102674.69;5007474;28;20033;-64
2023/02/08 11:17:56;;;;;;;10.57;4.23;;;;;;;1.19;68.37;102662.19;5009253;28;20077;-66
2023/02/08 11:20:28;;;;;;;7.00;4.50;;;;;;;1.01;69.45;102664.50;5009465;28;20067;-63
2023/02/08 11:22:53;;;;;;;8.53;4.70;;;;;;;1.25;69.29;102680.66;5014528;28;20026;-67
2023/02/08 11:25:34;;;;;;;8.70;5.10;;;;;;;1.37;68.44;102651.47;5029260;28;20497;-64
2023/02/08 11:28:00;;;;;;;10.07;5.20;;;;;;;1.55;68.87;102672.03;5029005;28;20403;-66
2023/02/08 11:30:26;;;;;;;9.77;5.67;;;;;;;1.00;69.05;102629.63;5028409;28;20022;-66
2023/02/08 11:33:17;;;;;;;9.37;4.87;;;;;;;1.12;69.44;102681.84;5029198;28;20035;-65